Details for EasyJet at EGGD




Go Back


Latest METAR
Local Time

EGGD 232320Z AUTO 08011KT 9999 BKN020 M02/M05 Q1018

23/02/2018, 23:48:44

Description
Results
EasyJet Logo
Number of Pilots based at EGGD
1 Pilots Based here
Number of EasyJet Flights Departed from EGGD
9 Flights Departed
Number of EasyJet Flights Arrived at EGGD
8 Flights Arrived
Number of EasyJet Schedules Departing from EGGD
147 Schedules
Number of EasyJet Schedules Arriving at EGGD
147 Schedules
Number of EasyJet Schedules Departing from EGGD availible today
47 Schedules Today
Number of EasyJet Schedules Arriving at EGGD availible today
48 Schedules Today
Average Landing Rate at EGGD
-232 fpm
EasyJet Average Landing Rate at EGGD
-266 fpm
Total Fuel Purchased at EGGD by EasyJet
48,795.68 kgs / 107,574.96 lbs

Pilots Based at EGGD


Pilot ID
Pilot Name
Pilot Rank
No. of Flights
No. of Flying Hours
Justin Fryer
1
2.32
Content